Time;durP1;ratioP1;P1;durP2;ratioP2;P2;SDS_P1;SDS_P2;PMS_P1;PMS_P2;Temp;Humidity;BMP_temperature;BMP_pressure;BME280_temperature;BME280_humidity;BME280_pressure;Samples;Min_cycle;Max_cycle;Signal;HPM_P1;HPM_P2
2024/03/29 05:05:53;;;;;;;0.30;0.30;;;10.10;91.00;;;;;;5800253;23;20269;-59
2024/03/29 05:08:19;;;;;;;0.30;0.30;;;10.10;91.30;;;;;;4898963;29;20599;-61
2024/03/29 05:10:46;;;;;;;0.30;0.30;;;10.10;90.80;;;;;;4899159;29;20254;-61
2024/03/29 05:13:12;;;;;;;0.30;0.30;;;10.10;91.00;;;;;;4898936;29;20206;-60
2024/03/29 05:15:37;;;;;;;0.30;0.30;;;10.10;90.50;;;;;;4898609;29;20195;-60
2024/03/29 05:18:03;;;;;;;0.30;0.30;;;10.20;90.20;;;;;;4898956;29;20643;-60
2024/03/29 05:20:30;;;;;;;0.30;0.30;;;10.20;90.00;;;;;;4899195;29;20325;-61
2024/03/29 05:22:55;;;;;;;0.30;0.30;;;10.30;89.50;;;;;;4898895;29;20663;-60
2024/03/29 05:25:21;;;;;;;0.40;0.40;;;10.40;89.30;;;;;;4898497;29;20335;-61
2024/03/29 05:27:47;;;;;;;0.30;0.30;;;10.40;90.00;;;;;;4898971;29;20634;-61
2024/03/29 05:30:13;;;;;;;0.30;0.30;;;10.40;90.10;;;;;;4898762;29;20663;-64
2024/03/29 05:32:39;;;;;;;0.30;0.30;;;10.40;90.10;;;;;;4898697;29;20402;-61
2024/03/29 05:35:05;;;;;;;0.40;0.40;;;10.40;90.40;;;;;;4897971;29;20185;-60
2024/03/29 05:37:31;;;;;;;0.47;0.47;;;10.40;90.40;;;;;;4898103;29;20208;-61
2024/03/29 05:39:59;;;;;;;0.30;0.30;;;10.40;90.50;;;;;;4898774;29;20415;-60
2024/03/29 05:42:30;;;;;;;0.38;0.38;;;10.40;90.60;;;;;;4898585;29;20459;-62
2024/03/29 05:44:55;;;;;;;0.30;0.30;;;10.40;90.70;;;;;;4898230;29;20207;-62
2024/03/29 05:47:21;;;;;;;0.30;0.30;;;10.30;90.90;;;;;;4898326;29;20238;-60
2024/03/29 05:49:50;;;;;;;0.30;0.30;;;10.30;90.70;;;;;;4898537;29;20191;-60
2024/03/29 05:52:16;;;;;;;1.23;1.17;;;10.30;90.90;;;;;;4898373;29;20207;-62
2024/03/29 05:54:45;;;;;;;0.40;0.40;;;10.30;90.80;;;;;;4898073;29;20595;-60
2024/03/29 05:57:11;;;;;;;0.30;0.30;;;10.40;90.70;;;;;;4898378;29;20556;-60
2024/03/29 05:59:37;;;;;;;0.30;0.30;;;10.40;90.30;;;;;;4898254;29;20409;-62
2024/03/29 06:02:04;;;;;;;0.35;0.35;;;10.50;90.20;;;;;;4898058;29;20191;-60
2024/03/29 06:04:32;;;;;;;0.30;0.30;;;10.50;90.00;;;;;;4898142;29;20184;-61
2024/03/29 06:07:01;;;;;;;0.30;0.30;;;10.60;90.40;;;;;;4898201;29;20788;-60
2024/03/29 06:09:27;;;;;;;0.30;0.30;;;10.50;90.20;;;;;;4898254;29;20494;-62
2024/03/29 06:11:57;;;;;;;0.33;0.33;;;10.60;90.10;;;;;;4898092;29;20582;-59
2024/03/29 06:17:23;;;;;;;0.30;0.30;;;10.70;89.50;;;;;;4898462;29;20431;-61
2024/03/29 06:19:55;;;;;;;0.30;0.30;;;10.70;89.40;;;;;;4898075;29;20259;-62
2024/03/29 06:22:21;;;;;;;0.30;0.30;;;10.80;89.80;;;;;;4898110;29;20691;-60
2024/03/29 06:24:48;;;;;;;0.30;0.30;;;10.80;90.30;;;;;;4897798;29;20273;-61
2024/03/29 06:27:17;;;;;;;0.30;0.30;;;10.80;90.50;;;;;;4897847;29;20204;-62
2024/03/29 06:29:43;;;;;;;0.30;0.30;;;10.80;90.40;;;;;;4898176;29;20258;-60
2024/03/29 06:32:09;;;;;;;0.30;0.30;;;10.90;90.20;;;;;;4898041;29;20405;-59
2024/03/29 06:34:34;;;;;;;0.30;0.30;;;10.90;89.40;;;;;;4897530;29;20279;-60
2024/03/29 06:37:00;;;;;;;0.30;0.30;;;11.00;89.10;;;;;;4897793;29;20199;-60
2024/03/29 06:39:25;;;;;;;0.30;0.30;;;11.10;88.90;;;;;;4898062;29;20626;-60
2024/03/29 06:41:52;;;;;;;0.30;0.30;;;11.10;88.70;;;;;;4898124;29;20181;-61
2024/03/29 06:44:17;;;;;;;0.30;0.30;;;11.20;89.00;;;;;;4897785;29;20905;-62
2024/03/29 06:46:43;;;;;;;0.30;0.30;;;11.20;88.40;;;;;;4897548;29;20441;-62
2024/03/29 06:49:09;;;;;;;0.30;0.30;;;11.30;88.50;;;;;;4897991;29;20178;-63
2024/03/29 06:51:34;;;;;;;0.40;0.40;;;11.30;88.60;;;;;;4896684;29;20253;-60
2024/03/29 06:54:00;;;;;;;0.40;0.40;;;11.50;88.00;;;;;;4897772;29;20236;-60
2024/03/29 06:56:25;;;;;;;0.30;0.30;;;11.50;87.90;;;;;;4897378;29;20197;-62
2024/03/29 06:58:51;;;;;;;0.30;0.30;;;11.70;87.60;;;;;;4897876;29;20178;-61
2024/03/29 07:01:16;;;;;;;0.30;0.30;;;11.80;87.40;;;;;;4897937;29;20308;-60
2024/03/29 07:03:42;;;;;;;0.30;0.30;;;11.90;86.90;;;;;;4897752;29;20632;-62
2024/03/29 07:06:08;;;;;;;0.30;0.30;;;11.90;86.60;;;;;;4897449;29;20209;-62
2024/03/29 07:08:33;;;;;;;0.30;0.30;;;12.00;86.30;;;;;;4897517;29;20253;-61
2024/03/29 07:11:00;;;;;;;0.30;0.30;;;12.10;86.10;;;;;;4897703;29;20210;-62
2024/03/29 07:13:28;;;;;;;0.37;0.37;;;12.20;85.20;;;;;;4898478;29;20248;-61
2024/03/29 07:15:54;;;;;;;0.30;0.30;;;12.30;85.60;;;;;;4900810;29;20517;-62
2024/03/29 07:18:19;;;;;;;0.30;0.20;;;12.40;85.20;;;;;;4901272;29;20814;-60
2024/03/29 07:20:45;;;;;;;0.30;0.30;;;12.50;85.00;;;;;;4901229;29;20178;-61
2024/03/29 07:23:11;;;;;;;0.30;0.30;;;12.60;84.60;;;;;;4899813;29;20613;-62
2024/03/29 07:25:37;;;;;;;0.30;0.30;;;12.60;84.50;;;;;;4900887;29;20282;-60
2024/03/29 07:28:03;;;;;;;0.30;0.30;;;12.70;84.60;;;;;;4901436;29;20415;-61
2024/03/29 07:30:28;;;;;;;0.30;0.30;;;12.70;84.20;;;;;;4901086;29;20782;-62
2024/03/29 07:32:54;;;;;;;0.30;0.20;;;12.70;84.60;;;;;;4900892;29;20465;-62
2024/03/29 07:35:20;;;;;;;0.30;0.30;;;12.60;85.60;;;;;;4900474;29;20179;-63
2024/03/29 07:37:47;;;;;;;0.30;0.30;;;12.50;86.70;;;;;;4900889;29;20189;-63
2024/03/29 07:40:13;;;;;;;0.30;0.30;;;12.40;88.00;;;;;;4900644;29;20560;-62
2024/03/29 07:42:39;;;;;;;0.33;0.33;;;12.30;88.90;;;;;;4900848;29;20418;-60
2024/03/29 07:45:05;;;;;;;0.30;0.30;;;12.10;91.50;;;;;;4900232;29;20427;-61
2024/03/29 07:47:30;;;;;;;0.40;0.40;;;11.90;92.80;;;;;;4900653;29;20205;-61
2024/03/29 07:49:56;;;;;;;0.40;0.40;;;11.80;93.20;;;;;;4900681;29;20174;-60
2024/03/29 07:52:22;;;;;;;0.30;0.30;;;11.60;95.60;;;;;;4900511;29;20448;-60
2024/03/29 07:54:48;;;;;;;0.30;0.30;;;11.30;97.30;;;;;;4900369;29;20209;-60
2024/03/29 07:57:15;;;;;;;0.30;0.30;;;11.00;99.20;;;;;;4900406;29;20204;-62
2024/03/29 07:59:41;;;;;;;0.30;0.30;;;10.70;99.90;;;;;;4900572;29;20574;-62
2024/03/29 08:02:07;;;;;;;0.30;0.30;;;10.50;99.70;;;;;;4900347;29;20416;-63
2024/03/29 08:04:33;;;;;;;0.40;0.40;;;10.20;99.90;;;;;;4900182;29;20763;-58
2024/03/29 08:06:59;;;;;;;0.40;0.40;;;9.90;99.90;;;;;;4900009;29;20466;-60
2024/03/29 08:09:25;;;;;;;0.30;0.30;;;9.70;99.90;;;;;;4900175;29;20183;-63
2024/03/29 08:11:50;;;;;;;0.30;0.30;;;9.50;99.90;;;;;;4900297;29;20179;-60
2024/03/29 08:14:16;;;;;;;0.30;0.30;;;9.40;99.90;;;;;;4899933;29;20215;-63
2024/03/29 08:16:42;;;;;;;0.30;0.30;;;9.30;99.90;;;;;;4899743;29;20191;-61
2024/03/29 08:19:08;;;;;;;0.30;0.30;;;9.30;99.90;;;;;;4900235;29;20183;-61
2024/03/29 08:21:34;;;;;;;0.30;0.30;;;9.30;99.90;;;;;;4900055;29;20669;-62
2024/03/29 08:24:00;;;;;;;0.40;0.40;;;9.30;99.90;;;;;;4900193;29;20416;-62
2024/03/29 08:26:28;;;;;;;0.40;0.40;;;9.30;99.90;;;;;;4898694;29;20202;-62
2024/03/29 08:28:54;;;;;;;0.30;0.30;;;9.20;99.90;;;;;;4899932;29;20179;-62
2024/03/29 08:31:19;;;;;;;0.50;0.50;;;9.20;99.90;;;;;;4899888;29;20183;-61
2024/03/29 08:33:45;;;;;;;0.30;0.30;;;9.30;99.90;;;;;;4899798;29;20263;-62
2024/03/29 08:36:11;;;;;;;0.40;0.40;;;9.30;99.90;;;;;;4899363;29;20553;-61
2024/03/29 08:38:41;;;;;;;0.30;0.30;;;9.30;99.90;;;;;;4899829;29;20171;-61
2024/03/29 08:41:07;;;;;;;0.50;0.50;;;9.30;99.90;;;;;;4899895;29;20179;-61
2024/03/29 08:43:33;;;;;;;0.47;0.47;;;9.30;99.90;;;;;;4898290;29;20668;-60
2024/03/29 08:45:59;;;;;;;0.30;0.30;;;9.30;99.90;;;;;;4899159;29;20427;-61
2024/03/29 08:48:27;;;;;;;0.30;0.30;;;9.40;99.90;;;;;;4899564;29;20186;-61
2024/03/29 08:50:53;;;;;;;0.40;0.40;;;9.40;99.90;;;;;;4899396;29;20183;-61
2024/03/29 08:53:19;;;;;;;0.50;0.50;;;9.50;99.90;;;;;;4899480;29;20227;-63
2024/03/29 08:55:46;;;;;;;0.30;0.30;;;9.60;99.90;;;;;;4899491;29;20305;-61
2024/03/29 08:58:12;;;;;;;0.40;0.40;;;9.60;99.90;;;;;;4899358;29;20554;-63
2024/03/29 09:00:38;;;;;;;0.30;0.30;;;9.70;99.90;;;;;;4899365;29;20181;-62
2024/03/29 09:03:03;;;;;;;0.30;0.30;;;9.80;99.90;;;;;;4899319;29;20180;-63
2024/03/29 09:05:29;;;;;;;0.40;0.40;;;9.90;99.90;;;;;;4898758;29;20319;-63
2024/03/29 09:07:56;;;;;;;0.30;0.30;;;10.00;99.90;;;;;;4898894;29;20196;-61
2024/03/29 09:10:26;;;;;;;0.30;0.30;;;10.10;99.90;;;;;;4899216;29;20190;-62
2024/03/29 09:12:53;;;;;;;0.30;0.30;;;10.10;99.90;;;;;;4898940;29;20192;-62
2024/03/29 09:15:18;;;;;;;0.30;0.30;;;10.10;99.90;;;;;;4898528;29;20180;-63
2024/03/29 09:17:44;;;;;;;0.30;0.30;;;10.10;99.90;;;;;;4898703;29;20509;-63
2024/03/29 09:20:11;;;;;;;0.40;0.40;;;10.00;99.90;;;;;;4898964;29;20259;-62
2024/03/29 09:22:36;;;;;;;0.60;0.60;;;10.00;99.90;;;;;;4898776;29;20409;-61
2024/03/29 09:25:04;;;;;;;0.30;0.30;;;10.00;99.90;;;;;;4898330;29;20397;-63
2024/03/29 09:27:29;;;;;;;0.30;0.30;;;10.00;99.90;;;;;;4898731;29;20197;-62
2024/03/29 09:29:56;;;;;;;0.30;0.30;;;10.10;99.90;;;;;;4898609;29;20603;-60
2024/03/29 09:32:22;;;;;;;0.40;0.40;;;10.10;99.90;;;;;;4898523;29;20186;-62
2024/03/29 09:34:48;;;;;;;0.40;0.40;;;10.20;99.90;;;;;;4898902;29;20228;-60
2024/03/29 09:37:14;;;;;;;0.30;0.30;;;10.20;99.90;;;;;;4898383;29;20275;-63
2024/03/29 09:39:39;;;;;;;0.30;0.30;;;10.30;99.90;;;;;;4897532;29;20180;-61
2024/03/29 09:42:07;;;;;;;0.30;0.30;;;10.30;99.90;;;;;;4898378;29;20179;-59
2024/03/29 09:44:36;;;;;;;0.30;0.30;;;10.30;99.90;;;;;;4898277;29;20516;-62
2024/03/29 09:47:04;;;;;;;0.30;0.30;;;10.30;99.90;;;;;;4898508;29;20569;-61
2024/03/29 09:49:31;;;;;;;3.80;1.55;;;10.30;99.90;;;;;;4898541;29;20184;-61
2024/03/29 09:52:01;;;;;;;0.30;0.30;;;10.30;99.90;;;;;;4898264;29;20271;-60
2024/03/29 09:54:30;;;;;;;0.35;0.35;;;10.20;99.90;;;;;;4898259;29;20202;-60
2024/03/29 09:56:57;;;;;;;0.30;0.30;;;10.20;99.90;;;;;;4898173;29;20203;-60
2024/03/29 09:59:23;;;;;;;0.30;0.30;;;10.10;99.90;;;;;;4898228;29;20183;-62
2024/03/29 10:01:50;;;;;;;0.30;0.30;;;10.10;99.90;;;;;;4898092;29;20649;-61
2024/03/29 10:04:17;;;;;;;0.30;0.30;;;10.10;99.90;;;;;;4898101;29;20219;-62
2024/03/29 10:06:49;;;;;;;0.30;0.30;;;10.20;99.90;;;;;;4897618;29;20201;-62
2024/03/29 10:09:17;;;;;;;0.40;0.40;;;10.20;99.90;;;;;;4898053;29;20188;-61
2024/03/29 10:11:43;;;;;;;0.30;0.30;;;10.30;99.90;;;;;;4898127;29;20329;-63
2024/03/29 10:14:08;;;;;;;0.30;0.30;;;10.30;99.90;;;;;;4897676;29;20228;-63
2024/03/29 10:16:35;;;;;;;0.30;0.30;;;10.30;99.90;;;;;;4897554;29;20456;-61
2024/03/29 10:19:02;;;;;;;0.30;0.30;;;10.40;99.90;;;;;;4897847;29;20265;-61
2024/03/29 10:21:27;;;;;;;0.30;0.30;;;10.60;99.90;;;;;;4897707;29;20270;-65
2024/03/29 10:23:53;;;;;;;0.40;0.40;;;10.60;99.90;;;;;;4897909;29;20475;-63
2024/03/29 10:26:19;;;;;;;0.30;0.30;;;10.80;99.90;;;;;;4897363;29;20197;-63
2024/03/29 10:28:47;;;;;;;0.40;0.40;;;10.90;99.90;;;;;;4897820;29;20174;-60
2024/03/29 10:31:14;;;;;;;0.30;0.27;;;11.10;99.90;;;;;;4897827;29;20417;-63
2024/03/29 10:33:44;;;;;;;0.30;0.30;;;11.20;99.90;;;;;;4897723;29;20449;-61
2024/03/29 10:36:11;;;;;;;0.30;0.30;;;11.40;99.90;;;;;;4897222;29;20434;-63
2024/03/29 10:38:38;;;;;;;0.30;0.30;;;11.40;99.90;;;;;;4897600;29;20422;-60
2024/03/29 10:41:06;;;;;;;0.30;0.30;;;11.50;99.90;;;;;;4897542;29;20845;-61
2024/03/29 10:43:33;;;;;;;0.30;0.30;;;11.50;99.90;;;;;;4897787;29;20426;-63
2024/03/29 10:46:00;;;;;;;0.30;0.30;;;11.60;99.90;;;;;;4897357;29;20568;-61
2024/03/29 10:48:28;;;;;;;0.30;0.30;;;11.70;99.90;;;;;;4898332;29;20418;-62
2024/03/29 10:50:54;;;;;;;0.40;0.40;;;11.80;99.90;;;;;;4901595;29;20932;-62
2024/03/29 10:53:23;;;;;;;0.30;0.30;;;11.90;99.90;;;;;;4901391;29;20597;-62
2024/03/29 10:55:53;;;;;;;0.60;0.50;;;12.00;99.90;;;;;;4900883;29;20843;-60
2024/03/29 10:58:24;;;;;;;0.30;0.30;;;12.10;99.90;;;;;;4901426;29;20505;-62
2024/03/29 11:00:53;;;;;;;0.30;0.30;;;12.20;99.90;;;;;;4901439;29;20422;-60
2024/03/29 11:03:38;;;;;;;0.30;0.30;;;12.30;99.90;;;;;;4900643;29;20422;-63
2024/03/29 11:06:06;;;;;;;0.30;0.30;;;12.30;99.90;;;;;;4900699;29;20597;-62
2024/03/29 11:08:42;;;;;;;0.30;0.30;;;12.30;99.90;;;;;;4900875;29;20449;-61
2024/03/29 11:11:09;;;;;;;0.40;0.40;;;12.40;99.90;;;;;;4901324;29;20636;-61
2024/03/29 11:13:38;;;;;;;0.30;0.20;;;12.50;99.90;;;;;;4900898;29;20429;-63
2024/03/29 11:16:04;;;;;;;0.40;0.40;;;12.60;99.90;;;;;;4900540;29;20454;-60
2024/03/29 11:18:30;;;;;;;0.30;0.20;;;12.60;99.90;;;;;;4900931;29;20887;-61
2024/03/29 11:20:58;;;;;;;0.30;0.30;;;12.80;99.90;;;;;;4900796;29;20412;-62
2024/03/29 11:23:26;;;;;;;0.50;0.50;;;12.90;99.90;;;;;;4900966;29;20429;-61
2024/03/29 11:25:59;;;;;;;0.30;0.30;;;13.10;99.90;;;;;;4900357;29;20945;-61
2024/03/29 11:28:31;;;;;;;0.30;0.30;;;13.20;99.90;;;;;;4900880;29;20416;-62
2024/03/29 11:31:07;;;;;;;0.30;0.20;;;13.40;99.90;;;;;;4900987;29;20414;-63
2024/03/29 11:33:43;;;;;;;0.30;0.30;;;13.50;99.90;;;;;;4899322;29;20466;-61
2024/03/29 11:36:16;;;;;;;0.30;0.30;;;13.70;99.90;;;;;;4900502;29;20426;-62
2024/03/29 11:38:43;;;;;;;0.30;0.30;;;13.90;99.90;;;;;;4900876;29;20436;-62
2024/03/29 11:41:16;;;;;;;0.40;0.40;;;13.90;99.90;;;;;;4900573;29;20424;-62
2024/03/29 11:43:43;;;;;;;0.60;0.60;;;14.10;99.90;;;;;;4900736;29;20774;-61
2024/03/29 11:46:18;;;;;;;0.40;0.40;;;14.20;99.90;;;;;;4900301;29;21004;-61
2024/03/29 11:48:45;;;;;;;0.30;0.30;;;14.30;99.90;;;;;;4900846;29;20408;-62
2024/03/29 11:51:14;;;;;;;0.30;0.30;;;14.30;99.90;;;;;;4900768;29;20441;-61
2024/03/29 11:53:40;;;;;;;0.30;0.30;;;14.30;99.90;;;;;;4900877;29;20430;-62
2024/03/29 11:56:06;;;;;;;0.30;0.30;;;14.40;99.90;;;;;;4900587;29;20452;-62
2024/03/29 11:58:34;;;;;;;0.40;0.40;;;14.40;99.90;;;;;;4904684;29;20404;-62
2024/03/29 12:01:00;;;;;;;0.40;0.40;;;14.50;99.90;;;;;;4904577;29;20764;-63
2024/03/29 12:03:28;;;;;;;0.30;0.20;;;14.50;99.90;;;;;;4903649;29;20416;-61
2024/03/29 12:06:01;;;;;;;0.30;0.30;;;14.50;99.90;;;;;;4901614;29;20506;-62
2024/03/29 12:08:31;;;;;;;0.30;0.30;;;14.50;99.90;;;;;;4902077;29;20439;-60
2024/03/29 12:11:01;;;;;;;0.30;0.30;;;14.60;99.90;;;;;;4902178;29;20429;-59
2024/03/29 12:13:27;;;;;;;0.40;0.40;;;14.60;99.90;;;;;;4901533;29;20435;-63
2024/03/29 12:15:53;;;;;;;0.30;0.30;;;14.60;99.90;;;;;;4900618;29;20757;-62
2024/03/29 12:18:25;;;;;;;0.30;0.30;;;14.70;99.90;;;;;;4900301;29;20438;-61
2024/03/29 12:20:53;;;;;;;0.30;0.30;;;14.70;99.90;;;;;;4900432;29;20411;-60
2024/03/29 12:23:20;;;;;;;0.30;0.20;;;14.90;99.90;;;;;;4900281;29;20400;-64
2024/03/29 12:25:47;;;;;;;0.30;0.30;;;15.00;99.90;;;;;;4900930;29;20413;-62
2024/03/29 12:28:14;;;;;;;0.30;0.30;;;15.20;99.90;;;;;;4901352;29;20414;-61
2024/03/29 12:30:45;;;;;;;0.30;0.30;;;15.40;99.90;;;;;;4900632;29;20425;-63
2024/03/29 12:33:19;;;;;;;0.30;0.30;;;15.50;99.90;;;;;;4900643;29;20489;-63
2024/03/29 12:35:48;;;;;;;0.30;0.30;;;15.70;99.90;;;;;;4900867;29;20431;-61
2024/03/29 12:38:15;;;;;;;0.30;0.27;;;15.90;99.90;;;;;;4899462;29;20382;-64
2024/03/29 12:40:47;;;;;;;0.30;0.30;;;16.00;99.90;;;;;;4900077;29;20400;-60
2024/03/29 12:43:13;;;;;;;0.30;0.20;;;16.10;99.90;;;;;;4898685;29;20509;-62
2024/03/29 12:45:41;;;;;;;0.30;0.30;;;16.20;99.90;;;;;;4899188;29;20479;-63
2024/03/29 12:48:15;;;;;;;0.30;0.30;;;16.40;99.90;;;;;;4899524;29;20411;-62
2024/03/29 12:50:42;;;;;;;0.30;0.30;;;16.50;99.90;;;;;;4899652;29;20478;-63
2024/03/29 12:53:11;;;;;;;0.30;0.30;;;16.70;99.90;;;;;;4899396;29;20748;-62
2024/03/29 12:55:39;;;;;;;0.30;0.30;;;16.90;99.90;;;;;;4899005;29;20414;-63
2024/03/29 12:58:07;;;;;;;0.30;0.30;;;17.00;99.90;;;;;;4899725;29;20401;-63
2024/03/29 13:00:34;;;;;;;0.30;0.30;;;17.10;99.90;;;;;;4899607;29;21093;-63
2024/03/29 13:03:00;;;;;;;0.30;0.30;;;17.20;99.90;;;;;;4899438;29;20404;-61
2024/03/29 13:05:27;;;;;;;0.30;0.30;;;17.40;99.90;;;;;;4898856;29;20414;-63
2024/03/29 13:07:53;;;;;;;0.30;0.20;;;17.40;99.90;;;;;;4899026;29;20928;-63
2024/03/29 13:10:22;;;;;;;0.30;0.30;;;17.40;99.90;;;;;;4899170;29;20386;-63
2024/03/29 13:12:51;;;;;;;0.30;0.30;;;17.30;99.90;;;;;;4898531;29;20249;-60
2024/03/29 13:15:18;;;;;;;0.30;0.30;;;17.30;99.90;;;;;;4898604;29;20968;-64
2024/03/29 13:17:44;;;;;;;0.30;0.30;;;17.40;99.90;;;;;;4899197;29;20386;-63
2024/03/29 13:20:11;;;;;;;0.30;0.30;;;17.30;99.90;;;;;;4897706;29;20409;-61
2024/03/29 13:22:37;;;;;;;0.30;0.30;;;17.30;99.90;;;;;;4899002;29;20390;-64
2024/03/29 13:25:04;;;;;;;0.30;0.30;;;17.40;99.90;;;;;;4898570;29;20485;-63
2024/03/29 13:27:30;;;;;;;0.30;0.30;;;17.50;99.90;;;;;;4898759;29;20700;-62
2024/03/29 13:29:56;;;;;;;0.30;0.30;;;17.50;99.90;;;;;;4898781;29;20397;-64
2024/03/29 13:32:22;;;;;;;0.30;0.30;;;17.50;99.90;;;;;;4898789;29;20419;-63
2024/03/29 13:34:47;;;;;;;0.30;0.20;;;17.40;99.90;;;;;;4898421;29;20233;-63
2024/03/29 13:37:13;;;;;;;0.30;0.30;;;17.20;99.90;;;;;;4898985;29;20201;-65
2024/03/29 13:39:39;;;;;;;0.30;0.30;;;17.00;99.90;;;;;;4898720;29;20771;-63
2024/03/29 13:42:05;;;;;;;0.30;0.30;;;16.90;99.90;;;;;;4898688;29;20183;-60
2024/03/29 13:44:31;;;;;;;0.30;0.30;;;16.70;99.90;;;;;;4898067;29;20199;-61
2024/03/29 13:46:58;;;;;;;0.30;0.30;;;16.70;99.90;;;;;;4898718;29;20408;-61
2024/03/29 13:49:28;;;;;;;0.30;0.30;;;16.60;99.90;;;;;;4898811;29;20461;-62
2024/03/29 13:51:54;;;;;;;0.30;0.30;;;16.50;99.90;;;;;;4898442;29;20469;-60
2024/03/29 13:54:20;;;;;;;0.30;0.30;;;16.50;99.90;;;;;;4898241;29;21104;-60
2024/03/29 13:56:45;;;;;;;0.30;0.30;;;16.50;99.90;;;;;;4898105;29;20195;-62
2024/03/29 13:59:11;;;;;;;0.40;0.40;;;16.50;99.90;;;;;;4898587;29;20207;-63
2024/03/29 14:01:37;;;;;;;0.30;0.30;;;16.50;99.90;;;;;;4898378;29;20519;-62
2024/03/29 14:04:02;;;;;;;0.30;0.30;;;16.60;99.90;;;;;;4898509;29;20487;-64
2024/03/29 14:06:28;;;;;;;0.30;0.30;;;16.60;99.90;;;;;;4896580;29;20767;-60
2024/03/29 14:08:54;;;;;;;0.30;0.30;;;16.70;99.90;;;;;;4898094;29;20194;-63
2024/03/29 14:11:20;;;;;;;0.30;0.30;;;16.70;99.90;;;;;;4898158;29;20415;-61
2024/03/29 14:13:49;;;;;;;0.30;0.20;;;16.70;99.90;;;;;;4898097;29;20271;-64
2024/03/29 14:16:14;;;;;;;0.30;0.30;;;16.80;99.90;;;;;;4897776;29;20563;-62
2024/03/29 14:18:40;;;;;;;0.30;0.30;;;16.80;99.90;;;;;;4898294;29;20389;-63
2024/03/29 14:21:06;;;;;;;0.30;0.30;;;16.80;99.90;;;;;;4898087;29;20309;-61
2024/03/29 14:23:32;;;;;;;0.30;0.30;;;16.80;99.90;;;;;;4897267;29;20300;-63
2024/03/29 14:25:58;;;;;;;0.30;0.20;;;16.80;99.90;;;;;;4897561;29;20448;-64
2024/03/29 14:28:23;;;;;;;0.30;0.20;;;16.90;99.90;;;;;;4898266;29;20184;-62
2024/03/29 14:30:50;;;;;;;0.30;0.30;;;16.90;99.90;;;;;;4897953;29;20189;-64
2024/03/29 14:33:15;;;;;;;0.30;0.30;;;16.90;99.90;;;;;;4898076;29;20209;-65
2024/03/29 14:35:41;;;;;;;0.30;0.30;;;16.90;99.90;;;;;;4897465;29;20434;-62
2024/03/29 14:38:06;;;;;;;0.30;0.30;;;17.00;99.90;;;;;;4898090;29;20174;-64
2024/03/29 14:40:32;;;;;;;0.30;0.30;;;17.10;99.90;;;;;;4897926;29;20185;-63
2024/03/29 14:42:58;;;;;;;0.30;0.30;;;17.20;99.90;;;;;;4897615;29;20186;-64
2024/03/29 14:45:23;;;;;;;0.30;0.30;;;17.20;99.90;;;;;;4897645;29;20174;-63
2024/03/29 14:47:49;;;;;;;0.30;0.30;;;17.30;99.90;;;;;;4897771;29;20204;-63
2024/03/29 14:50:15;;;;;;;0.30;0.30;;;17.40;99.90;;;;;;4897730;29;20189;-62
2024/03/29 14:52:41;;;;;;;0.30;0.20;;;17.40;99.90;;;;;;4897770;29;20502;-64
2024/03/29 14:55:07;;;;;;;0.30;0.30;;;17.50;99.60;;;;;;4897353;29;20563;-65
2024/03/29 14:57:33;;;;;;;0.30;0.30;;;17.50;99.20;;;;;;4897607;29;20435;-64
2024/03/29 14:59:58;;;;;;;0.30;0.30;;;17.60;99.20;;;;;;4897540;29;20266;-61
2024/03/29 15:02:24;;;;;;;0.30;0.20;;;17.60;99.10;;;;;;4897802;29;20167;-63
2024/03/29 15:04:50;;;;;;;0.40;0.40;;;17.60;99.10;;;;;;4897335;29;20654;-63
2024/03/29 15:07:15;;;;;;;0.30;0.30;;;17.60;99.30;;;;;;4896186;29;20446;-62
2024/03/29 15:09:41;;;;;;;0.30;0.30;;;17.70;99.70;;;;;;4897476;29;20179;-61
2024/03/29 15:12:08;;;;;;;0.30;0.30;;;17.70;99.70;;;;;;4897419;29;20183;-62
2024/03/29 15:14:37;;;;;;;0.30;0.20;;;17.70;99.40;;;;;;4895818;29;20580;-64
2024/03/29 15:17:04;;;;;;;0.30;0.30;;;17.70;99.50;;;;;;4897407;29;20427;-65
2024/03/29 15:19:30;;;;;;;0.30;0.30;;;17.70;99.50;;;;;;4897348;29;20502;-64
2024/03/29 15:21:58;;;;;;;0.30;0.20;;;17.60;99.20;;;;;;4897474;29;20488;-60
2024/03/29 15:24:24;;;;;;;0.30;0.20;;;17.60;99.40;;;;;;4897284;29;20263;-64
2024/03/29 15:26:51;;;;;;;0.30;0.30;;;17.60;99.70;;;;;;4897353;29;20474;-61
2024/03/29 15:29:18;;;;;;;0.30;0.30;;;17.60;99.70;;;;;;4897431;29;20183;-64
2024/03/29 15:31:44;;;;;;;0.30;0.20;;;17.60;98.80;;;;;;4897651;29;20502;-64
2024/03/29 15:34:10;;;;;;;0.30;0.30;;;17.60;98.70;;;;;;4897734;29;20461;-61
2024/03/29 15:36:37;;;;;;;0.30;0.30;;;17.70;99.30;;;;;;4900333;29;20191;-64
2024/03/29 15:39:09;;;;;;;0.30;0.30;;;17.60;99.10;;;;;;4899453;29;20411;-62
2024/03/29 15:41:37;;;;;;;0.30;0.20;;;17.60;99.10;;;;;;4900775;29;20421;-61
2024/03/29 15:44:03;;;;;;;0.30;0.30;;;17.60;99.30;;;;;;4899381;29;20433;-62
2024/03/29 15:46:30;;;;;;;0.30;0.20;;;17.60;99.50;;;;;;4900498;29;20469;-62
2024/03/29 15:48:56;;;;;;;0.30;0.30;;;17.70;99.60;;;;;;4900602;29;20955;-61
2024/03/29 15:51:22;;;;;;;0.30;0.30;;;17.70;99.30;;;;;;4900619;29;20419;-62
2024/03/29 15:53:49;;;;;;;0.30;0.20;;;17.70;99.30;;;;;;4900323;29;20529;-63
2024/03/29 15:56:15;;;;;;;0.30;0.20;;;17.70;99.10;;;;;;4900244;29;20491;-64
2024/03/29 15:58:42;;;;;;;0.40;0.40;;;17.70;99.20;;;;;;4900496;29;20509;-62
2024/03/29 16:01:09;;;;;;;0.30;0.30;;;17.70;99.00;;;;;;4900369;29;20495;-62
2024/03/29 16:03:35;;;;;;;0.30;0.30;;;17.70;99.00;;;;;;4900194;29;20422;-62
2024/03/29 16:06:01;;;;;;;0.30;0.30;;;17.60;99.00;;;;;;4899670;29;20410;-64
2024/03/29 16:08:26;;;;;;;0.30;0.30;;;17.60;99.00;;;;;;4900048;29;20838;-62
2024/03/29 16:10:54;;;;;;;0.30;0.30;;;17.60;99.40;;;;;;4900274;29;20389;-63
2024/03/29 16:13:21;;;;;;;0.30;0.30;;;17.60;99.40;;;;;;4900314;29;20566;-64
2024/03/29 16:15:47;;;;;;;0.30;0.30;;;17.50;99.40;;;;;;4899982;29;20434;-65
2024/03/29 16:18:14;;;;;;;0.30;0.30;;;17.50;99.60;;;;;;4900055;29;20421;-63
2024/03/29 16:20:40;;;;;;;0.30;0.30;;;17.50;99.90;;;;;;4899928;29;20412;-61
2024/03/29 16:23:06;;;;;;;0.30;0.30;;;17.40;99.90;;;;;;4900368;29;20411;-61
2024/03/29 16:25:32;;;;;;;0.30;0.30;;;17.30;99.90;;;;;;4900175;29;20502;-63
2024/03/29 16:27:57;;;;;;;0.30;0.20;;;17.20;99.90;;;;;;4899903;29;20412;-60
2024/03/29 16:30:23;;;;;;;0.30;0.30;;;17.10;99.90;;;;;;4900000;29;20167;-63
2024/03/29 16:32:48;;;;;;;0.57;0.50;;;16.90;99.90;;;;;;4899816;29;20728;-60
2024/03/29 16:35:14;;;;;;;0.40;0.40;;;16.90;99.90;;;;;;4899373;29;20297;-62
2024/03/29 16:37:40;;;;;;;0.40;0.40;;;16.80;99.90;;;;;;4898678;29;20258;-64
2024/03/29 16:40:06;;;;;;;0.30;0.30;;;16.80;99.90;;;;;;4899831;29;20237;-62
2024/03/29 16:42:32;;;;;;;0.30;0.30;;;16.70;99.90;;;;;;4899666;29;20864;-61
2024/03/29 16:44:58;;;;;;;0.30;0.30;;;16.60;99.90;;;;;;4899227;29;20389;-63
2024/03/29 16:47:23;;;;;;;0.30;0.30;;;16.50;99.90;;;;;;4898699;29;20198;-62
2024/03/29 16:49:49;;;;;;;0.63;0.63;;;16.40;99.90;;;;;;4899509;29;20629;-62
2024/03/29 16:52:14;;;;;;;0.30;0.30;;;16.40;99.90;;;;;;4899633;29;20186;-61
2024/03/29 16:54:40;;;;;;;0.30;0.30;;;16.30;99.90;;;;;;4898991;29;20212;-63
2024/03/29 16:57:05;;;;;;;0.30;0.30;;;16.30;99.90;;;;;;4899396;29;20196;-61
2024/03/29 16:59:33;;;;;;;0.30;0.30;;;16.20;99.90;;;;;;4899429;29;20636;-63
2024/03/29 17:01:58;;;;;;;0.30;0.30;;;16.20;99.90;;;;;;4899139;29;20184;-63
2024/03/29 17:04:24;;;;;;;0.30;0.30;;;16.10;99.90;;;;;;4898857;29;20432;-64
2024/03/29 17:06:50;;;;;;;0.30;0.30;;;16.10;99.90;;;;;;4898679;29;20288;-61
2024/03/29 17:09:40;;;;;;;0.30;0.30;;;16.10;99.90;;;;;;4897745;29;20212;-65
2024/03/29 17:12:06;;;;;;;0.30;0.30;;;16.00;99.90;;;;;;4897851;29;20231;-62
2024/03/29 17:14:32;;;;;;;0.30;0.30;;;15.90;99.90;;;;;;4898757;29;20496;-61
2024/03/29 17:17:03;;;;;;;0.30;0.30;;;15.90;99.90;;;;;;4898963;29;20437;-62
2024/03/29 17:19:29;;;;;;;0.30;0.30;;;15.80;99.90;;;;;;4898908;29;20641;-63
2024/03/29 17:21:55;;;;;;;0.33;0.33;;;15.70;99.90;;;;;;4898871;29;20494;-61
2024/03/29 17:24:20;;;;;;;0.30;0.30;;;15.70;99.90;;;;;;4898870;29;20411;-63
2024/03/29 17:26:46;;;;;;;0.30;0.30;;;15.60;99.90;;;;;;4898382;29;20280;-61
2024/03/29 17:29:12;;;;;;;0.30;0.30;;;15.50;99.90;;;;;;4898800;29;20186;-60
2024/03/29 17:31:41;;;;;;;0.30;0.30;;;15.40;99.90;;;;;;4898709;29;20507;-61
2024/03/29 17:34:10;;;;;;;0.30;0.30;;;15.40;99.90;;;;;;4898621;29;20711;-62
2024/03/29 17:36:36;;;;;;;0.90;0.40;;;15.30;99.90;;;;;;4898283;29;20466;-60
2024/03/29 17:39:02;;;;;;;0.30;0.30;;;15.30;99.90;;;;;;4898964;29;20774;-62
2024/03/29 17:41:28;;;;;;;0.40;0.40;;;15.20;99.90;;;;;;4898386;29;20521;-61
2024/03/29 17:43:54;;;;;;;0.30;0.30;;;15.20;99.90;;;;;;4898597;29;20518;-63
2024/03/29 17:46:19;;;;;;;0.30;0.30;;;15.10;99.90;;;;;;4898404;29;20438;-62
2024/03/29 17:48:45;;;;;;;0.40;0.40;;;15.00;99.90;;;;;;4898810;29;20175;-59
2024/03/29 17:51:12;;;;;;;0.30;0.30;;;14.90;99.90;;;;;;4898931;29;20783;-64
2024/03/29 17:53:38;;;;;;;0.30;0.30;;;14.80;99.90;;;;;;4898541;29;20206;-60